createdAt,value
2022-07-28T00:00:15.294Z,4.30
2022-07-28T00:02:42.646Z,4.07
2022-07-28T00:05:10.351Z,4.00
2022-07-28T00:07:37.742Z,3.90
2022-07-28T00:10:05.583Z,3.92
2022-07-28T00:12:32.854Z,3.90
2022-07-28T00:15:00.991Z,3.95
2022-07-28T00:17:28.545Z,4.22
2022-07-28T00:19:55.800Z,4.65
2022-07-28T00:22:23.037Z,5.00
2022-07-28T00:24:50.379Z,4.38
2022-07-28T00:27:19.499Z,5.15
2022-07-28T00:29:50.610Z,4.40
2022-07-28T00:32:20.912Z,4.40
2022-07-28T00:34:48.554Z,4.03
2022-07-28T00:37:15.829Z,4.07
2022-07-28T00:39:44.244Z,5.00
2022-07-28T00:42:12.555Z,4.75
2022-07-28T00:44:42.177Z,4.40
2022-07-28T00:47:09.898Z,4.85
2022-07-28T00:49:37.162Z,4.18
2022-07-28T00:52:06.238Z,4.05
2022-07-28T00:54:34.401Z,4.35
2022-07-28T00:57:01.926Z,4.22
2022-07-28T00:59:29.353Z,4.75
2022-07-28T01:02:00.510Z,4.38
2022-07-28T01:04:27.982Z,4.30
2022-07-28T01:07:25.607Z,4.60
2022-07-28T01:10:20.610Z,3.80
2022-07-28T01:15:41.012Z,4.63
2022-07-28T01:18:31.192Z,4.97
2022-07-28T01:21:05.132Z,4.25
2022-07-28T01:23:32.353Z,4.07
2022-07-28T01:26:02.761Z,4.75
2022-07-28T01:29:13.140Z,4.13
2022-07-28T01:31:44.040Z,4.53
2022-07-28T01:34:16.383Z,4.45
2022-07-28T01:36:46.726Z,3.97
2022-07-28T01:39:15.544Z,4.43
2022-07-28T01:41:44.692Z,4.00
2022-07-28T01:44:20.500Z,3.65
2022-07-28T01:46:49.309Z,3.78
2022-07-28T01:49:18.925Z,3.88
2022-07-28T01:51:48.442Z,4.10
2022-07-28T01:54:18.487Z,3.75
2022-07-28T01:56:47.846Z,3.60
2022-07-28T01:59:15.925Z,4.50
2022-07-28T02:01:44.749Z,3.70
2022-07-28T02:04:15.926Z,4.10
2022-07-28T02:06:44.932Z,4.10
2022-07-28T02:09:13.343Z,3.58
2022-07-28T02:11:41.638Z,3.28
2022-07-28T02:14:24.266Z,3.90
2022-07-28T02:17:18.954Z,3.83
2022-07-28T02:19:48.830Z,4.35
2022-07-28T02:22:17.321Z,4.07
2022-07-28T02:24:45.779Z,3.95
2022-07-28T02:27:48.277Z,3.60
2022-07-28T02:30:37.844Z,4.65
2022-07-28T02:33:57.876Z,4.35
2022-07-28T02:36:20.598Z,4.53
2022-07-28T02:38:51.183Z,4.55
2022-07-28T02:41:24.870Z,4.65
2022-07-28T02:43:55.738Z,3.97
2022-07-28T02:46:27.494Z,4.32
2022-07-28T02:49:06.545Z,4.45
2022-07-28T02:51:35.384Z,4.40
2022-07-28T02:54:03.983Z,4.90
2022-07-28T02:56:32.429Z,4.93
2022-07-28T02:59:01.395Z,4.15
2022-07-28T03:01:29.224Z,5.28
2022-07-28T03:03:58.022Z,4.95
2022-07-28T03:06:28.553Z,4.82
2022-07-28T03:08:57.501Z,4.47
2022-07-28T03:11:25.033Z,4.97
2022-07-28T03:13:52.325Z,4.68
2022-07-28T03:16:19.702Z,4.38
2022-07-28T03:18:47.021Z,5.03
2022-07-28T03:21:14.941Z,5.22
2022-07-28T03:23:43.940Z,4.65
2022-07-28T03:26:41.500Z,5.13
2022-07-28T03:29:10.757Z,4.80
2022-07-28T03:31:40.880Z,5.10
2022-07-28T03:34:11.969Z,5.00
2022-07-28T03:36:44.781Z,4.78
2022-07-28T03:39:15.967Z,5.13
2022-07-28T03:41:45.431Z,4.68
2022-07-28T03:44:14.227Z,4.85
2022-07-28T03:46:54.743Z,5.00
2022-07-28T03:49:22.435Z,5.30
2022-07-28T03:51:49.805Z,5.10
2022-07-28T03:54:17.330Z,4.72
2022-07-28T03:56:44.870Z,4.70
2022-07-28T03:59:12.114Z,5.10
2022-07-28T04:01:39.863Z,5.60
2022-07-28T04:04:07.156Z,5.03
2022-07-28T04:06:34.473Z,5.57
2022-07-28T04:09:01.994Z,5.35
2022-07-28T04:11:29.253Z,5.28
2022-07-28T04:13:57.347Z,4.72
2022-07-28T04:16:24.649Z,5.07
2022-07-28T04:18:51.951Z,5.15
2022-07-28T04:21:19.416Z,5.15
2022-07-28T04:23:46.703Z,4.30
2022-07-28T04:26:14.050Z,4.90
2022-07-28T04:28:41.386Z,5.57
2022-07-28T04:31:08.817Z,4.75
2022-07-28T04:33:36.105Z,5.10
2022-07-28T04:36:03.658Z,4.55
2022-07-28T04:38:30.922Z,4.70
2022-07-28T04:40:58.329Z,4.50
2022-07-28T04:43:26.462Z,4.70
2022-07-28T04:45:54.634Z,5.00
2022-07-28T04:48:23.335Z,5.70
2022-07-28T04:50:53.039Z,5.90
2022-07-28T04:53:21.486Z,4.63
2022-07-28T04:55:49.663Z,5.07
2022-07-28T04:58:19.369Z,4.53
2022-07-28T05:00:49.897Z,4.35
2022-07-28T05:03:18.175Z,3.95
2022-07-28T05:05:47.131Z,4.72
2022-07-28T05:08:25.730Z,4.50
2022-07-28T05:10:55.175Z,4.28
2022-07-28T05:13:22.384Z,4.45
2022-07-28T05:15:49.617Z,4.75
2022-07-28T05:18:16.965Z,4.68
2022-07-28T05:20:44.209Z,5.10
2022-07-28T05:23:12.997Z,4.88
2022-07-28T05:25:40.309Z,4.80
2022-07-28T05:28:07.734Z,4.70
2022-07-28T05:30:37.190Z,4.88
2022-07-28T05:33:04.557Z,5.68
2022-07-28T05:35:31.823Z,5.05
2022-07-28T05:37:59.269Z,5.00
2022-07-28T05:40:27.473Z,4.13
2022-07-28T05:42:56.047Z,4.35
2022-07-28T05:45:23.424Z,4.20
2022-07-28T05:47:52.868Z,4.32
2022-07-28T05:50:22.316Z,4.00
2022-07-28T05:52:50.410Z,3.67
2022-07-28T05:55:18.034Z,3.95
2022-07-28T05:57:45.993Z,3.90
2022-07-28T06:00:19.257Z,3.92
2022-07-28T06:02:49.599Z,4.20
2022-07-28T06:05:18.672Z,3.47
2022-07-28T06:07:47.323Z,3.40
2022-07-28T06:10:16.995Z,3.70
2022-07-28T06:12:46.961Z,3.40
2022-07-28T06:15:16.223Z,3.63
2022-07-28T06:17:43.976Z,4.03
2022-07-28T06:20:12.763Z,3.20
2022-07-28T06:22:43.692Z,2.92
2022-07-28T06:25:16.327Z,2.92
2022-07-28T06:27:45.578Z,2.70
2022-07-28T06:30:13.667Z,2.78
2022-07-28T06:32:41.029Z,2.70
2022-07-28T06:35:09.301Z,2.63
2022-07-28T06:37:36.870Z,2.80
2022-07-28T06:40:18.226Z,2.42
2022-07-28T06:42:52.628Z,2.88
2022-07-28T06:48:29.459Z,2.75
2022-07-28T06:51:13.132Z,2.30
2022-07-28T06:53:42.496Z,3.20
2022-07-28T06:56:18.070Z,2.50
2022-07-28T06:58:56.270Z,3.75
2022-07-28T07:01:27.435Z,3.05
2022-07-28T07:03:54.938Z,2.70
2022-07-28T07:06:23.448Z,2.80
2022-07-28T07:08:50.771Z,3.00
2022-07-28T07:11:18.146Z,2.10
2022-07-28T07:13:45.424Z,2.70
2022-07-28T07:16:12.775Z,2.80
2022-07-28T07:18:40.124Z,2.35
2022-07-28T07:21:07.751Z,2.30
2022-07-28T07:23:35.854Z,2.35
2022-07-28T07:26:03.958Z,2.13
2022-07-28T07:28:31.549Z,1.90
2022-07-28T07:30:58.842Z,2.35
2022-07-28T07:33:26.187Z,4.50
2022-07-28T07:35:53.533Z,2.65
2022-07-28T07:38:20.919Z,2.60
2022-07-28T07:40:48.275Z,1.95
2022-07-28T07:43:15.598Z,2.47
2022-07-28T07:45:42.848Z,2.13
2022-07-28T07:48:10.452Z,2.28
2022-07-28T07:50:38.499Z,2.33
2022-07-28T07:53:05.865Z,2.13
2022-07-28T07:55:37.227Z,2.10
2022-07-28T07:58:05.587Z,1.83
2022-07-28T08:00:33.006Z,2.13
2022-07-28T08:03:01.245Z,2.55
2022-07-28T08:05:34.782Z,2.00
2022-07-28T08:08:05.492Z,2.33
2022-07-28T08:10:34.067Z,1.98
2022-07-28T08:13:01.602Z,2.00
2022-07-28T08:15:29.284Z,1.77
2022-07-28T08:17:56.670Z,2.17
2022-07-28T08:20:24.008Z,1.98
2022-07-28T08:22:52.713Z,1.92
2022-07-28T08:25:21.033Z,2.08
2022-07-28T08:27:48.567Z,1.80
2022-07-28T08:30:18.439Z,2.30
2022-07-28T08:32:56.808Z,2.10
2022-07-28T08:35:35.002Z,2.22
2022-07-28T08:38:04.837Z,1.75
2022-07-28T08:40:32.810Z,2.10
2022-07-28T08:43:14.382Z,1.98
2022-07-28T08:45:44.895Z,2.30
2022-07-28T08:48:13.091Z,2.10
2022-07-28T08:50:42.488Z,2.13
2022-07-28T08:53:10.828Z,2.70
2022-07-28T08:55:38.912Z,2.70
2022-07-28T08:58:07.562Z,2.10
2022-07-28T09:00:34.883Z,2.00
2022-07-28T09:03:03.658Z,2.28
2022-07-28T09:05:31.388Z,2.17
2022-07-28T09:07:59.776Z,2.17
2022-07-28T09:10:28.281Z,2.40
2022-07-28T09:12:56.064Z,2.55
2022-07-28T09:15:23.394Z,2.10
2022-07-28T09:17:50.742Z,2.80
2022-07-28T09:20:18.472Z,2.83
2022-07-28T09:23:01.105Z,2.88
2022-07-28T09:25:30.006Z,2.58
2022-07-28T09:28:10.622Z,2.83
2022-07-28T09:30:54.314Z,2.80
2022-07-28T09:33:43.141Z,2.65
2022-07-28T09:36:18.255Z,2.50
2022-07-28T09:38:45.645Z,2.50
2022-07-28T09:41:13.307Z,2.55
2022-07-28T09:43:44.678Z,2.58
2022-07-28T09:46:19.290Z,2.35
2022-07-28T09:48:49.965Z,2.58
2022-07-28T09:51:22.815Z,2.15
2022-07-28T09:53:51.443Z,2.28
2022-07-28T09:56:19.415Z,2.22
2022-07-28T09:58:58.428Z,2.30
2022-07-28T10:01:28.594Z,2.70
2022-07-28T10:04:03.090Z,2.90
2022-07-28T10:06:34.705Z,2.33
2022-07-28T10:09:04.617Z,2.53
2022-07-28T10:11:32.123Z,2.15
2022-07-28T10:14:04.892Z,2.45
2022-07-28T10:16:42.251Z,2.38
2022-07-28T10:19:10.041Z,2.55
2022-07-28T10:21:44.470Z,2.83
2022-07-28T10:24:20.983Z,2.63
2022-07-28T10:26:49.056Z,2.28
2022-07-28T10:29:20.671Z,2.67
2022-07-28T10:31:58.061Z,2.58
2022-07-28T10:34:35.208Z,2.85
2022-07-28T10:37:04.817Z,2.35
2022-07-28T10:39:42.256Z,2.70
2022-07-28T10:42:11.872Z,3.17
2022-07-28T10:44:41.800Z,2.88
2022-07-28T10:47:18.152Z,3.13
2022-07-28T10:49:48.589Z,2.67
2022-07-28T10:55:05.953Z,2.40
2022-07-28T10:57:41.839Z,2.80
2022-07-28T11:00:26.778Z,2.58
2022-07-28T11:02:59.062Z,2.10
2022-07-28T11:05:40.524Z,2.10
2022-07-28T11:08:29.025Z,2.40
2022-07-28T11:11:07.433Z,2.47
2022-07-28T11:13:41.055Z,2.50
2022-07-28T11:16:15.855Z,2.42
2022-07-28T11:19:36.734Z,2.35
2022-07-28T11:22:19.198Z,2.45
2022-07-28T11:24:58.761Z,2.50
2022-07-28T11:27:44.254Z,2.85
2022-07-28T11:30:13.997Z,2.50
2022-07-28T11:32:50.481Z,2.58
2022-07-28T11:35:19.386Z,2.70
2022-07-28T11:38:02.165Z,2.42
2022-07-28T11:40:31.203Z,2.35
2022-07-28T11:43:36.216Z,2.92
2022-07-28T11:46:07.776Z,2.28
2022-07-28T11:48:44.943Z,3.17
2022-07-28T11:51:14.174Z,2.78
2022-07-28T11:53:51.714Z,2.60
2022-07-28T11:56:27.089Z,2.30
2022-07-28T11:59:02.344Z,2.20
2022-07-28T12:01:31.956Z,2.78
2022-07-28T12:04:00.506Z,2.30
2022-07-28T12:06:40.434Z,2.42
2022-07-28T12:09:09.667Z,2.70
2022-07-28T12:11:38.929Z,2.80
2022-07-28T12:14:12.251Z,2.53
2022-07-28T12:16:42.395Z,2.28
2022-07-28T12:19:14.637Z,2.38
2022-07-28T12:21:48.017Z,2.50
2022-07-28T12:24:29.430Z,2.42
2022-07-28T12:27:00.809Z,2.47
2022-07-28T12:29:35.818Z,2.40
2022-07-28T12:32:10.364Z,2.08
2022-07-28T12:34:40.357Z,2.05
2022-07-28T12:37:12.642Z,2.33
2022-07-28T12:39:42.614Z,2.00
2022-07-28T12:42:12.391Z,2.17
2022-07-28T12:44:51.500Z,2.30
2022-07-28T12:47:27.758Z,1.90
2022-07-28T12:50:17.693Z,2.00
2022-07-28T12:53:06.101Z,2.20
2022-07-28T12:55:33.753Z,2.60
2022-07-28T12:58:01.867Z,3.40
2022-07-28T13:00:33.618Z,2.80
2022-07-28T13:03:19.737Z,2.80
2022-07-28T13:06:02.535Z,2.20
2022-07-28T13:08:47.085Z,2.80
2022-07-28T13:11:42.902Z,2.65
2022-07-28T13:14:04.644Z,3.65
2022-07-28T13:16:32.070Z,2.78
2022-07-28T13:19:04.664Z,3.03
2022-07-28T13:21:56.572Z,3.13
2022-07-28T13:24:28.871Z,2.83
2022-07-28T13:26:57.020Z,3.42
2022-07-28T13:29:24.785Z,2.92
2022-07-28T13:31:54.877Z,3.30
2022-07-28T13:34:22.998Z,3.13
2022-07-28T13:36:50.388Z,4.30
2022-07-28T13:39:17.779Z,4.57
2022-07-28T13:41:57.744Z,3.97
2022-07-28T13:44:30.232Z,4.50
2022-07-28T13:46:59.471Z,4.15
2022-07-28T13:49:31.996Z,4.22
2022-07-28T13:52:00.620Z,3.95
2022-07-28T13:54:28.386Z,4.10
2022-07-28T13:56:55.715Z,4.18
2022-07-28T13:59:26.401Z,3.95
2022-07-28T14:01:56.131Z,3.80
2022-07-28T14:04:24.091Z,3.50
2022-07-28T14:06:52.053Z,3.20
2022-07-28T14:09:21.183Z,3.67
2022-07-28T14:11:50.056Z,2.70
2022-07-28T14:14:25.133Z,2.92
2022-07-28T14:16:56.156Z,3.20
2022-07-28T14:19:39.155Z,3.30
2022-07-28T14:22:13.692Z,2.85
2022-07-28T14:24:44.606Z,2.55
2022-07-28T14:27:12.067Z,3.58
2022-07-28T14:29:40.046Z,3.85
2022-07-28T14:32:07.722Z,3.40
2022-07-28T14:34:35.672Z,3.65
2022-07-28T14:37:09.059Z,3.17
2022-07-28T14:39:38.412Z,2.97
2022-07-28T14:42:08.499Z,2.58
2022-07-28T14:44:35.868Z,2.50
2022-07-28T14:47:03.648Z,3.08
2022-07-28T14:49:31.848Z,2.75
2022-07-28T14:51:59.588Z,3.10
2022-07-28T14:54:27.974Z,3.25
2022-07-28T14:56:55.361Z,2.72
2022-07-28T14:59:22.834Z,2.85
2022-07-28T15:01:50.315Z,3.00
2022-07-28T15:04:18.655Z,2.58
2022-07-28T15:06:49.421Z,2.58
2022-07-28T15:09:16.896Z,2.22
2022-07-28T15:11:47.533Z,2.70
2022-07-28T15:14:15.801Z,2.50
2022-07-28T15:16:43.503Z,2.40
2022-07-28T15:19:11.089Z,2.50
2022-07-28T15:21:40.089Z,2.50
2022-07-28T15:24:09.187Z,2.38
2022-07-28T15:26:36.500Z,1.90
2022-07-28T15:29:04.276Z,1.80
2022-07-28T15:31:31.804Z,1.95
2022-07-28T15:33:59.566Z,1.80
2022-07-28T15:36:28.875Z,2.40
2022-07-28T15:38:56.280Z,2.10
2022-07-28T15:41:23.536Z,1.77
2022-07-28T15:43:50.838Z,1.73
2022-07-28T15:46:18.152Z,1.70
2022-07-28T15:48:45.622Z,1.63
2022-07-28T15:51:12.944Z,1.90
2022-07-28T15:53:41.404Z,1.75
2022-07-28T15:56:09.073Z,1.90
2022-07-28T15:58:36.780Z,1.58
2022-07-28T16:01:04.397Z,1.75
2022-07-28T16:03:31.725Z,1.70
2022-07-28T16:05:59.160Z,1.70
2022-07-28T16:08:27.238Z,1.75
2022-07-28T16:10:55.092Z,1.77
2022-07-28T16:13:32.127Z,1.63
2022-07-28T16:16:09.869Z,2.08
2022-07-28T16:18:39.093Z,1.70
2022-07-28T16:21:07.623Z,1.92
2022-07-28T16:23:35.508Z,1.90
2022-07-28T16:26:05.247Z,1.65
2022-07-28T16:28:32.537Z,2.15
2022-07-28T16:30:59.845Z,2.00
2022-07-28T16:33:27.206Z,1.65
2022-07-28T16:36:01.500Z,1.80
2022-07-28T16:38:29.043Z,1.65
2022-07-28T16:40:57.441Z,1.70
2022-07-28T16:43:24.832Z,1.63
2022-07-28T16:45:52.191Z,1.90
2022-07-28T16:48:19.511Z,1.92
2022-07-28T16:50:46.978Z,2.03
2022-07-28T16:53:14.353Z,1.65
2022-07-28T16:55:42.428Z,1.70
2022-07-28T16:58:09.931Z,3.42
2022-07-28T17:00:37.337Z,4.30
2022-07-28T17:03:04.677Z,2.20
2022-07-28T17:05:32.776Z,2.35
2022-07-28T17:08:00.019Z,1.77
2022-07-28T17:10:27.808Z,2.00
2022-07-28T17:12:55.426Z,2.00
2022-07-28T17:15:23.540Z,1.88
2022-07-28T17:17:56.196Z,2.13
2022-07-28T17:20:25.225Z,1.80
2022-07-28T17:22:52.546Z,1.63
2022-07-28T17:25:47.258Z,1.92
2022-07-28T17:28:07.725Z,1.63
2022-07-28T17:30:35.866Z,1.70
2022-07-28T17:33:08.626Z,1.83
2022-07-28T17:35:37.466Z,2.00
2022-07-28T17:38:07.034Z,1.83
2022-07-28T17:40:34.956Z,1.98
2022-07-28T17:43:02.313Z,1.67
2022-07-28T17:45:29.646Z,1.85
2022-07-28T17:47:56.911Z,1.75
2022-07-28T17:50:24.286Z,1.70
2022-07-28T17:52:51.607Z,1.90
2022-07-28T17:55:57.763Z,1.52
2022-07-28T17:58:29.153Z,2.03
2022-07-28T18:01:12.204Z,2.22
2022-07-28T18:03:58.979Z,2.00
2022-07-28T18:06:34.885Z,2.20
2022-07-28T18:09:08.607Z,2.17
2022-07-28T18:11:57.381Z,2.42
2022-07-28T18:14:30.132Z,1.98
2022-07-28T18:16:58.664Z,2.10
2022-07-28T18:19:26.821Z,1.95
2022-07-28T18:21:54.578Z,1.75
2022-07-28T18:24:22.699Z,1.70
2022-07-28T18:26:51.692Z,2.05
2022-07-28T18:29:21.141Z,2.47
2022-07-28T18:31:50.918Z,5.63
2022-07-28T18:34:19.084Z,3.80
2022-07-28T18:36:50.853Z,4.22
2022-07-28T18:39:18.261Z,2.67
2022-07-28T18:41:47.836Z,2.75
2022-07-28T18:44:17.847Z,3.15
2022-07-28T18:46:45.927Z,2.88
2022-07-28T18:49:13.539Z,2.72
2022-07-28T18:51:44.948Z,2.72
2022-07-28T18:54:19.929Z,2.88
2022-07-28T18:56:49.108Z,2.55
2022-07-28T18:59:16.575Z,2.25
2022-07-28T19:01:44.063Z,2.67
2022-07-28T19:04:11.454Z,2.63
2022-07-28T19:06:38.978Z,2.45
2022-07-28T19:09:07.079Z,2.95
2022-07-28T19:11:34.433Z,2.50
2022-07-28T19:14:01.931Z,2.92
2022-07-28T19:16:29.231Z,3.65
2022-07-28T19:18:56.560Z,2.58
2022-07-28T19:21:24.586Z,2.45
2022-07-28T19:23:53.137Z,2.95
2022-07-28T19:26:22.011Z,2.88
2022-07-28T19:28:49.511Z,3.10
2022-07-28T19:31:16.839Z,3.08
2022-07-28T19:33:44.377Z,2.70
2022-07-28T19:36:13.890Z,3.00
2022-07-28T19:38:41.518Z,2.67
2022-07-28T19:41:09.676Z,3.65
2022-07-28T19:43:36.949Z,2.70
2022-07-28T19:46:04.493Z,2.42
2022-07-28T19:48:31.972Z,2.53
2022-07-28T19:50:59.297Z,2.78
2022-07-28T19:53:31.856Z,2.58
2022-07-28T19:55:59.741Z,2.77
2022-07-28T19:58:28.246Z,2.55
2022-07-28T20:00:56.482Z,2.60
2022-07-28T20:04:02.147Z,3.10
2022-07-28T20:06:11.920Z,2.83
2022-07-28T20:08:40.185Z,3.10
2022-07-28T20:11:08.436Z,3.20
2022-07-28T20:13:35.972Z,3.20
2022-07-28T20:16:03.211Z,3.03
2022-07-28T20:18:30.463Z,2.83
2022-07-28T20:20:57.763Z,3.13
2022-07-28T20:23:25.084Z,2.92
2022-07-28T20:25:52.308Z,2.40
2022-07-28T20:28:19.622Z,2.42
2022-07-28T20:30:46.910Z,2.80
2022-07-28T20:33:14.264Z,2.75
2022-07-28T20:35:41.469Z,2.58
2022-07-28T20:38:08.782Z,2.53
2022-07-28T20:40:36.097Z,2.72
2022-07-28T20:43:03.549Z,2.60
2022-07-28T20:45:32.011Z,2.80
2022-07-28T20:47:59.604Z,2.95
2022-07-28T20:50:26.947Z,3.88
2022-07-28T20:52:54.199Z,3.95
2022-07-28T20:55:21.596Z,4.68
2022-07-28T20:57:53.148Z,4.38
2022-07-28T21:00:21.199Z,4.32
2022-07-28T21:02:48.583Z,3.95
2022-07-28T21:05:26.605Z,3.50
2022-07-28T21:08:06.017Z,3.60
2022-07-28T21:10:36.605Z,3.00
2022-07-28T21:13:03.884Z,3.20
2022-07-28T21:15:31.387Z,3.20
2022-07-28T21:17:59.220Z,3.00
2022-07-28T21:20:26.774Z,3.60
2022-07-28T21:22:54.116Z,3.08
2022-07-28T21:25:22.157Z,3.03
2022-07-28T21:28:07.997Z,3.03
2022-07-28T21:30:35.321Z,3.17
2022-07-28T21:33:02.646Z,3.78
2022-07-28T21:35:30.269Z,3.50
2022-07-28T21:37:57.517Z,3.90
2022-07-28T21:40:24.858Z,3.53
2022-07-28T21:42:52.828Z,3.60
2022-07-28T21:45:20.169Z,3.40
2022-07-28T21:47:47.701Z,3.10
2022-07-28T21:50:15.220Z,3.70
2022-07-28T21:52:42.721Z,3.53
2022-07-28T21:55:10.417Z,3.40
2022-07-28T21:57:37.759Z,4.05
2022-07-28T22:00:08.785Z,3.75
2022-07-28T22:02:35.989Z,3.60
2022-07-28T22:05:04.867Z,3.20
2022-07-28T22:07:32.333Z,4.47
2022-07-28T22:09:59.687Z,3.22
2022-07-28T22:12:26.905Z,4.20
2022-07-28T22:14:54.183Z,4.22
2022-07-28T22:17:21.430Z,3.58
2022-07-28T22:19:48.730Z,4.32
2022-07-28T22:22:18.498Z,4.07
2022-07-28T22:24:46.229Z,4.15
2022-07-28T22:27:13.496Z,3.80
2022-07-28T22:29:45.411Z,3.80
2022-07-28T22:32:17.555Z,3.33
2022-07-28T22:34:54.090Z,3.83
2022-07-28T22:37:21.350Z,3.90
2022-07-28T22:39:48.698Z,4.13
2022-07-28T22:42:15.950Z,3.80
2022-07-28T22:44:43.292Z,3.50
2022-07-28T22:47:10.507Z,3.35
2022-07-28T22:49:37.736Z,3.40
2022-07-28T22:52:05.334Z,3.78
2022-07-28T22:54:32.644Z,3.88
2022-07-28T22:56:59.887Z,3.65
2022-07-28T22:59:27.382Z,3.40
2022-07-28T23:01:57.929Z,3.33
2022-07-28T23:04:25.690Z,3.22
2022-07-28T23:06:54.444Z,3.08
2022-07-28T23:09:21.665Z,3.20
2022-07-28T23:11:50.994Z,3.50
2022-07-28T23:14:23.781Z,3.42
2022-07-28T23:16:51.487Z,3.15
2022-07-28T23:19:18.735Z,3.22
2022-07-28T23:21:46.059Z,3.15
2022-07-28T23:24:13.733Z,2.97
2022-07-28T23:26:41.285Z,3.13
2022-07-28T23:29:08.694Z,3.65
2022-07-28T23:31:36.019Z,2.95
2022-07-28T23:34:03.538Z,3.20
2022-07-28T23:36:30.945Z,3.10
2022-07-28T23:38:59.192Z,3.00
2022-07-28T23:41:27.197Z,3.15
2022-07-28T23:43:54.836Z,2.85
2022-07-28T23:46:23.707Z,2.80
2022-07-28T23:48:51.330Z,2.90
2022-07-28T23:51:18.801Z,3.40
2022-07-28T23:53:45.999Z,3.35
2022-07-28T23:56:14.434Z,3.58
2022-07-28T23:58:42.273Z,3.20
